Main page
METAR-TAF:

METAR-TAF

Airports :

Da Nang International Airport

Da Nang, Vietnam

latitude: 16-02N, longitude: 108-11E, elevation: 7 m

Current weather observation

The report was made 13 minutes ago, at 19:00 UTC
Wind 1 kt from variable directions
Temperature 24°C
Humidity 83%
Pressure 1013 hPa
Visibility: 7000 m
Few clouds at a height of 1500 ft
Scattered clouds at a height of 6000 ft

METAR: VVDN 281900Z VRB01KT 7000 FEW015 SCT060 24/21 Q1013 NOSIG

Time: 02:13 (19:13 UTC)

Forecast

The report was made 2 hours and 13 minutes ago, at 17:00 UTC
Forecast valid from 28 at 18 UTC to 29 at 18 UTC
Wind 3 kt from the South/Southwest
Visibility: 7000 m
Few clouds at a height of 1500 ft
Scattered clouds at a height of 6000 ft
Becoming
from 28 at 20 UTC to 28 at 21 UTC
Visibility: 4000 m
mist
Becoming
from 29 at 00 UTC to 29 at 01 UTC
Visibility: 7000 m

TAF: VVDN 281700Z 2818/2918 20003KT 7000 FEW015 SCT060 BECMG 2820/2821 4000 BR BECMG 2900/2901 7000 NSW

Weather observations and forecasts of more than 4000 airports (METAR and TAF reports).

The available stations are represented by yellow and red dots on the map.

Hover mouse over dot to see the name of the station.

Then click to see weather observations and forecasts.

To change the map : click on the green buttons with a black cross to zoom in, on the green button with a dash to zoom out, or on the green arrows for adjacent maps.


METAR-TAF: